الصفحة الرئيسية
METAR-TAF:

METAR-TAF

مطار :

مطار شيريميتييفو الدولي

موسكو-شيريميتييفو, روسيا

دائرة عرض: 55-58N, خط طول: 037-25E, ارتفاع: 190 متر

مراقبة الطقس الحالي

تاريخ ووقت الإصدار 14 دقيقة قبل الساعة 00:30UTC
ريح 6 عقدة من الجنوب الغربي
درجة الحرارة 6°درجة مئوية
الرطوبة 87%
ضغط 1023 hPa
الرؤية 10 كم أو أكثر
الغيوم لا تقل 1500 م ولا وجود لمزنة ركامية السحاب الأسود

METAR: UUEE 170030Z 23003MPS CAVOK 06/04 Q1023 R24L/CLRD62 NOSIG

زمن: 03:44 (00:44 UTC)

توقعات

تاريخ ووقت الإصدار 1ساعة و 54 دقيقة قبل الساعة 22:50UTC
التوقعات صالحة من17 الساعة 00 UTC إلى 17 الساعة 24 UTC
ريح 6 عقدة من الجنوب الغربي
الرؤية: 9000 متر
غيوم متفرقة على ارتفاع 4000 قدم

TAF: UUEE 162250Z 1700/1724 23003MPS 9000 SCT040 TX16/1712Z TN05/1703Z

أرصاد الطقس والتوقعات من أكثر من 4000 مطار (تقارير الطقس للمطار METAR والتنبؤ بالطقس بالمطارTAF).

المحطات المتاحة هي النقط الصفراء والحمراء على الخريطة.

حرك المؤشر فوق النقطة لمعرفة اسم المحطة.

ثم انقر لمعرفة أرصاد وتوقعات الطقس.

لتغيير الخارطة: اضغط على الأزرار الخضراء مع رمز الصليب الأسود للتكبير. على الزر الأخضر مع شرطة للتصغير، أو على الأسهم الخضراء للخرائط المجاورة.


METAR-TAF: